createdAt,value
2023-03-04T00:02:05.362Z,16.90
2023-03-04T00:04:31.779Z,16.10
2023-03-04T00:06:58.143Z,15.32
2023-03-04T00:09:24.483Z,16.50
2023-03-04T00:11:50.826Z,17.42
2023-03-04T00:14:17.250Z,17.98
2023-03-04T00:16:43.665Z,18.02
2023-03-04T00:19:10.751Z,18.55
2023-03-04T00:21:37.130Z,19.67
2023-03-04T00:24:03.496Z,19.35
2023-03-04T00:26:29.823Z,19.42
2023-03-04T00:28:56.163Z,19.85
2023-03-04T00:31:22.595Z,21.77
2023-03-04T00:33:48.980Z,20.67
2023-03-04T00:36:15.367Z,19.95
2023-03-04T00:38:41.898Z,20.55
2023-03-04T00:41:08.356Z,21.00
2023-03-04T00:43:34.710Z,20.63
2023-03-04T00:46:01.102Z,18.80
2023-03-04T00:48:27.497Z,18.48
2023-03-04T00:50:53.964Z,18.05
2023-03-04T00:53:21.105Z,18.83
2023-03-04T00:55:47.454Z,18.38
2023-03-04T00:58:14.071Z,18.85
2023-03-04T01:00:40.492Z,19.35
2023-03-04T01:03:06.868Z,19.55
2023-03-04T01:05:35.806Z,21.17
2023-03-04T01:08:02.792Z,19.75
2023-03-04T01:10:29.249Z,18.65
2023-03-04T01:12:55.589Z,19.52
2023-03-04T01:15:21.924Z,18.52
2023-03-04T01:17:48.290Z,18.48
2023-03-04T01:20:15.332Z,16.95
2023-03-04T01:22:41.664Z,16.85
2023-03-04T01:25:08.684Z,16.52
2023-03-04T01:27:35.036Z,15.77
2023-03-04T01:30:01.477Z,15.90
2023-03-04T01:32:27.869Z,14.90
2023-03-04T01:34:54.404Z,15.60
2023-03-04T01:37:20.751Z,14.65
2023-03-04T01:39:47.094Z,16.38
2023-03-04T01:42:24.391Z,16.58
2023-03-04T01:44:51.304Z,16.20
2023-03-04T01:47:18.404Z,16.08
2023-03-04T01:49:54.475Z,15.50
2023-03-04T01:52:20.996Z,15.32
2023-03-04T01:54:48.405Z,15.77
2023-03-04T01:57:26.073Z,15.40
2023-03-04T02:00:15.000Z,14.00
2023-03-04T02:02:41.480Z,15.30
2023-03-04T02:05:08.016Z,14.90
2023-03-04T02:07:34.466Z,15.95
2023-03-04T02:10:00.949Z,15.40
2023-03-04T02:12:27.375Z,14.23
2023-03-04T02:14:53.818Z,15.35
2023-03-04T02:17:27.793Z,14.40
2023-03-04T02:20:43.529Z,14.40
2023-03-04T02:23:57.932Z,12.90
2023-03-04T02:26:28.347Z,13.63
2023-03-04T02:28:56.466Z,15.10
2023-03-04T02:31:32.266Z,12.80
2023-03-04T02:34:01.658Z,13.00
2023-03-04T02:36:28.617Z,13.60
2023-03-04T02:38:58.638Z,12.98
2023-03-04T02:41:26.463Z,13.55
2023-03-04T02:43:54.788Z,13.55
2023-03-04T02:46:21.253Z,14.20
2023-03-04T02:48:47.772Z,12.52
2023-03-04T02:51:14.212Z,13.68
2023-03-04T02:53:40.600Z,13.18
2023-03-04T02:56:07.455Z,13.40
2023-03-04T02:58:34.303Z,13.48
2023-03-04T03:01:00.720Z,13.57
2023-03-04T03:03:29.976Z,14.93
2023-03-04T03:05:56.462Z,14.48
2023-03-04T03:08:26.047Z,15.73
2023-03-04T03:10:52.419Z,16.63
2023-03-04T03:13:19.159Z,17.02
2023-03-04T03:15:45.577Z,18.15
2023-03-04T03:18:12.321Z,18.75
2023-03-04T03:20:38.763Z,19.70
2023-03-04T03:23:05.144Z,17.77
2023-03-04T03:25:31.537Z,20.05
2023-03-04T03:27:57.992Z,19.55
2023-03-04T03:30:24.432Z,21.67
2023-03-04T03:32:50.966Z,20.60
2023-03-04T03:35:17.496Z,19.60
2023-03-04T03:37:49.008Z,19.33
2023-03-04T03:40:15.440Z,18.88
2023-03-04T03:42:41.866Z,19.88
2023-03-04T03:45:08.681Z,21.88
2023-03-04T03:47:35.207Z,18.33
2023-03-04T03:50:01.669Z,20.52
2023-03-04T03:52:28.095Z,19.98
2023-03-04T03:54:54.540Z,18.98
2023-03-04T03:57:20.893Z,19.15
2023-03-04T03:59:47.327Z,20.67
2023-03-04T04:02:13.832Z,20.50
2023-03-04T04:04:40.265Z,20.85
2023-03-04T04:07:06.653Z,20.08
2023-03-04T04:09:32.996Z,19.92
2023-03-04T04:11:59.367Z,19.25
2023-03-04T04:14:25.705Z,18.92
2023-03-04T04:16:52.092Z,19.25
2023-03-04T04:19:19.730Z,20.70
2023-03-04T04:21:46.236Z,20.73
2023-03-04T04:24:12.659Z,19.00
2023-03-04T04:26:39.208Z,19.17
2023-03-04T04:29:05.654Z,21.13
2023-03-04T04:31:32.079Z,21.80
2023-03-04T04:33:58.465Z,20.35
2023-03-04T04:36:24.806Z,21.63
2023-03-04T04:38:51.194Z,21.13
2023-03-04T04:41:23.687Z,21.40
2023-03-04T04:43:50.055Z,22.58
2023-03-04T04:46:17.112Z,22.02
2023-03-04T04:48:43.652Z,22.20
2023-03-04T04:51:10.384Z,21.85
2023-03-04T04:53:36.732Z,22.17
2023-03-04T04:56:17.669Z,22.05
2023-03-04T04:58:44.790Z,20.88
2023-03-04T05:01:11.191Z,21.90
2023-03-04T05:03:38.339Z,21.92
2023-03-04T05:06:07.064Z,23.33
2023-03-04T05:08:34.137Z,21.48
2023-03-04T05:11:00.841Z,20.75
2023-03-04T05:13:27.603Z,20.35
2023-03-04T05:15:55.499Z,21.33
2023-03-04T05:18:23.096Z,22.05
2023-03-04T05:20:53.568Z,22.10
2023-03-04T05:23:20.005Z,20.95
2023-03-04T05:25:46.584Z,23.75
2023-03-04T05:28:13.127Z,22.25
2023-03-04T05:30:40.405Z,21.67
2023-03-04T05:33:08.852Z,20.42
2023-03-04T05:35:36.168Z,20.98
2023-03-04T05:38:03.971Z,21.30
2023-03-04T05:40:30.538Z,21.25
2023-03-04T05:42:56.934Z,20.98
2023-03-04T05:45:23.593Z,20.05
2023-03-04T05:47:50.017Z,20.73
2023-03-04T05:50:16.483Z,20.20
2023-03-04T05:52:42.875Z,19.77
2023-03-04T05:55:09.484Z,18.92
2023-03-04T05:57:36.188Z,21.10
2023-03-04T06:00:05.375Z,19.88
2023-03-04T06:02:31.809Z,21.50
2023-03-04T06:04:58.279Z,18.58
2023-03-04T06:07:24.732Z,20.30
2023-03-04T06:09:51.127Z,21.45
2023-03-04T06:12:19.238Z,22.25
2023-03-04T06:14:45.550Z,22.00
2023-03-04T06:17:11.941Z,21.98
2023-03-04T06:19:38.263Z,22.65
2023-03-04T06:22:05.245Z,21.58
2023-03-04T06:24:31.670Z,22.05
2023-03-04T06:26:58.104Z,22.05
2023-03-04T06:29:24.503Z,23.30
2023-03-04T06:31:51.052Z,21.48
2023-03-04T06:34:17.506Z,21.65
2023-03-04T06:36:43.962Z,21.15
2023-03-04T06:39:10.702Z,23.90
2023-03-04T06:41:37.495Z,22.80
2023-03-04T06:44:04.046Z,23.13
2023-03-04T06:46:30.837Z,22.00
2023-03-04T06:48:57.245Z,23.65
2023-03-04T06:51:23.654Z,21.42
2023-03-04T06:53:50.188Z,22.63
2023-03-04T06:56:16.658Z,22.92
2023-03-04T06:58:44.070Z,22.55
2023-03-04T07:01:13.851Z,24.23
2023-03-04T07:03:40.522Z,22.85
2023-03-04T07:06:07.107Z,23.63
2023-03-04T07:08:33.558Z,22.20
2023-03-04T07:10:59.978Z,21.67
2023-03-04T07:13:26.352Z,21.73
2023-03-04T07:15:52.809Z,23.15
2023-03-04T07:18:19.132Z,23.35
2023-03-04T07:20:45.501Z,22.35
2023-03-04T07:23:11.868Z,23.38
2023-03-04T07:25:38.312Z,23.20
2023-03-04T07:28:04.704Z,23.23
2023-03-04T07:30:31.078Z,22.88
2023-03-04T07:32:58.278Z,22.20
2023-03-04T07:35:24.679Z,23.45
2023-03-04T07:37:51.130Z,24.30
2023-03-04T07:40:17.552Z,23.65
2023-03-04T07:42:44.471Z,23.25
2023-03-04T07:45:11.390Z,21.38
2023-03-04T07:47:38.369Z,20.80
2023-03-04T07:50:05.136Z,18.02
2023-03-04T07:52:31.478Z,14.18
2023-03-04T07:54:57.828Z,37.88
2023-03-04T07:57:24.249Z,33.55
2023-03-04T07:59:50.654Z,27.23
2023-03-04T08:02:17.119Z,21.92
2023-03-04T08:04:43.485Z,22.75
2023-03-04T08:07:09.853Z,21.52
2023-03-04T08:09:36.180Z,22.23
2023-03-04T08:12:02.628Z,19.90
2023-03-04T08:14:29.000Z,19.33
2023-03-04T08:16:55.379Z,19.88
2023-03-04T08:19:21.747Z,19.30
2023-03-04T08:21:48.130Z,20.15
2023-03-04T08:24:14.538Z,19.88
2023-03-04T08:26:46.321Z,19.02
2023-03-04T08:29:16.194Z,17.67
2023-03-04T08:31:43.016Z,16.73
2023-03-04T08:34:10.433Z,16.85
2023-03-04T08:36:37.053Z,18.05
2023-03-04T08:39:04.904Z,16.10
2023-03-04T08:41:31.618Z,16.10
2023-03-04T08:43:59.192Z,16.17
2023-03-04T08:46:25.580Z,15.52
2023-03-04T08:48:52.042Z,14.32
2023-03-04T08:51:18.736Z,14.95
2023-03-04T08:53:45.261Z,15.00
2023-03-04T08:56:12.198Z,14.85
2023-03-04T08:58:38.774Z,14.85
2023-03-04T09:01:08.203Z,13.48
2023-03-04T09:03:34.679Z,13.32
2023-03-04T09:06:02.753Z,13.68
2023-03-04T09:08:29.127Z,13.20
2023-03-04T09:10:55.859Z,12.50
2023-03-04T09:13:26.062Z,14.45
2023-03-04T09:15:53.291Z,14.15
2023-03-04T09:18:21.545Z,12.18
2023-03-04T09:20:48.257Z,10.95
2023-03-04T09:23:14.691Z,12.90
2023-03-04T09:25:42.209Z,10.32
2023-03-04T09:28:08.664Z,9.70
2023-03-04T09:30:37.208Z,10.25
2023-03-04T09:33:03.737Z,9.98
2023-03-04T09:35:30.328Z,9.82
2023-03-04T09:37:57.650Z,9.57
2023-03-04T09:40:29.985Z,9.25
2023-03-04T09:42:59.794Z,9.38
2023-03-04T09:45:33.322Z,9.27
2023-03-04T09:47:59.977Z,8.80
2023-03-04T09:50:27.848Z,8.57
2023-03-04T09:53:07.879Z,8.63
2023-03-04T09:55:42.968Z,8.50
2023-03-04T09:58:40.090Z,8.35
2023-03-04T10:01:26.511Z,7.07
2023-03-04T10:04:00.991Z,7.00
2023-03-04T10:06:27.449Z,7.53
2023-03-04T10:09:04.892Z,7.18
2023-03-04T10:11:46.985Z,8.25
2023-03-04T10:14:22.431Z,7.78
2023-03-04T10:17:17.294Z,8.05
2023-03-04T10:19:53.011Z,8.23
2023-03-04T10:22:22.079Z,8.05
2023-03-04T10:24:49.053Z,7.57
2023-03-04T10:27:17.395Z,7.70
2023-03-04T10:29:43.810Z,7.35
2023-03-04T10:32:16.966Z,7.65
2023-03-04T10:34:43.658Z,7.20
2023-03-04T10:37:11.657Z,7.57
2023-03-04T10:39:42.835Z,8.13
2023-03-04T10:42:15.050Z,7.70
2023-03-04T10:44:43.774Z,7.38
2023-03-04T10:47:11.802Z,7.75
2023-03-04T10:49:58.374Z,8.60
2023-03-04T10:52:40.359Z,7.18
2023-03-04T10:55:15.162Z,6.55
2023-03-04T10:57:43.756Z,7.03
2023-03-04T11:00:33.289Z,6.95
2023-03-04T11:03:25.276Z,7.07
2023-03-04T11:05:53.633Z,6.72
2023-03-04T11:08:22.483Z,7.40
2023-03-04T11:10:50.283Z,7.25
2023-03-04T11:13:19.869Z,7.38
2023-03-04T11:15:48.848Z,6.78
2023-03-04T11:18:15.985Z,6.75
2023-03-04T11:20:48.369Z,6.60
2023-03-04T11:23:23.575Z,7.13
2023-03-04T11:25:54.975Z,6.68
2023-03-04T11:29:00.125Z,6.05
2023-03-04T11:31:30.882Z,6.15
2023-03-04T11:34:16.267Z,5.38
2023-03-04T11:36:49.675Z,5.82
2023-03-04T11:39:30.503Z,6.10
2023-03-04T11:42:02.640Z,6.55
2023-03-04T11:44:30.306Z,6.68
2023-03-04T11:47:11.276Z,5.78
2023-03-04T11:49:46.363Z,5.82
2023-03-04T11:52:15.351Z,6.22
2023-03-04T11:55:19.153Z,5.65
2023-03-04T11:58:04.440Z,5.25
2023-03-04T12:00:35.764Z,6.15
2023-03-04T12:03:35.324Z,5.93
2023-03-04T12:06:27.717Z,5.30
2023-03-04T12:09:19.711Z,5.38
2023-03-04T12:12:19.668Z,5.13
2023-03-04T12:15:08.122Z,5.30
2023-03-04T12:17:54.842Z,5.13
2023-03-04T12:20:27.431Z,4.93
2023-03-04T12:23:08.784Z,5.20
2023-03-04T12:25:39.710Z,6.18
2023-03-04T12:28:27.717Z,5.28
2023-03-04T12:31:18.864Z,6.07
2023-03-04T12:34:00.011Z,6.32
2023-03-04T12:36:51.099Z,4.90
2023-03-04T12:40:02.214Z,4.63
2023-03-04T12:43:06.285Z,4.28
2023-03-04T12:45:44.794Z,4.47
2023-03-04T12:48:40.040Z,4.80
2023-03-04T12:51:15.230Z,5.00
2023-03-04T12:53:53.489Z,4.60
2023-03-04T12:56:43.603Z,6.60
2023-03-04T12:59:16.439Z,5.25
2023-03-04T13:02:07.211Z,6.00
2023-03-04T13:05:18.452Z,5.90
2023-03-04T13:08:05.949Z,4.30
2023-03-04T13:10:32.315Z,3.72
2023-03-04T13:13:00.371Z,3.78
2023-03-04T13:15:36.743Z,4.65
2023-03-04T13:18:36.261Z,3.20
2023-03-04T13:21:11.322Z,4.43
2023-03-04T13:23:37.992Z,3.35
2023-03-04T13:26:18.695Z,4.20
2023-03-04T13:28:45.134Z,4.07
2023-03-04T13:31:17.728Z,4.32
2023-03-04T13:33:49.786Z,4.70
2023-03-04T13:36:52.192Z,4.80
2023-03-04T13:39:18.516Z,4.25
2023-03-04T13:41:53.601Z,3.80
2023-03-04T13:44:43.995Z,4.35
2023-03-04T13:47:16.409Z,5.13
2023-03-04T13:49:42.779Z,4.57
2023-03-04T13:52:36.968Z,5.20
2023-03-04T13:55:40.945Z,5.55
2023-03-04T13:58:18.279Z,5.38
2023-03-04T14:00:49.497Z,5.63
2023-03-04T14:03:21.659Z,5.75
2023-03-04T14:05:48.173Z,5.47
2023-03-04T14:08:19.175Z,6.70
2023-03-04T14:10:45.552Z,6.22
2023-03-04T14:13:11.942Z,5.07
2023-03-04T14:15:39.092Z,6.10
2023-03-04T14:18:05.673Z,6.10
2023-03-04T14:20:37.684Z,5.50
2023-03-04T14:23:22.292Z,6.00
2023-03-04T14:25:50.349Z,5.63
2023-03-04T14:28:19.064Z,5.60
2023-03-04T14:30:52.435Z,5.00
2023-03-04T14:33:22.022Z,5.30
2023-03-04T14:35:50.245Z,5.32
2023-03-04T14:38:26.436Z,4.88
2023-03-04T14:41:17.055Z,5.47
2023-03-04T14:43:54.317Z,5.07
2023-03-04T14:46:21.578Z,5.03
2023-03-04T14:48:53.116Z,4.95
2023-03-04T14:51:34.327Z,4.95
2023-03-04T14:54:00.687Z,5.53
2023-03-04T14:56:33.285Z,5.07
2023-03-04T14:58:59.777Z,4.90
2023-03-04T15:01:35.292Z,4.60
2023-03-04T15:04:08.166Z,4.53
2023-03-04T15:06:37.135Z,3.90
2023-03-04T15:09:08.467Z,4.95
2023-03-04T15:11:48.768Z,3.97
2023-03-04T15:14:46.778Z,3.95
2023-03-04T15:17:33.299Z,4.00
2023-03-04T15:20:02.332Z,3.97
2023-03-04T15:22:29.325Z,3.42
2023-03-04T15:24:55.719Z,5.05
2023-03-04T15:27:27.320Z,4.72
2023-03-04T15:29:59.085Z,4.50
2023-03-04T15:32:26.539Z,4.00
2023-03-04T15:34:52.966Z,4.57
2023-03-04T15:37:28.674Z,5.05
2023-03-04T15:39:56.711Z,5.00
2023-03-04T15:42:23.189Z,5.22
2023-03-04T15:44:49.545Z,5.38
2023-03-04T15:47:15.974Z,5.55
2023-03-04T15:49:44.512Z,6.00
2023-03-04T15:52:17.069Z,6.18
2023-03-04T15:54:44.323Z,6.32
2023-03-04T15:57:26.666Z,5.65
2023-03-04T15:59:53.392Z,6.10
2023-03-04T16:02:22.954Z,6.85
2023-03-04T16:04:49.682Z,5.85
2023-03-04T16:07:21.716Z,6.15
2023-03-04T16:09:51.586Z,7.03
2023-03-04T16:12:17.977Z,8.10
2023-03-04T16:14:46.817Z,8.27
2023-03-04T16:17:16.099Z,7.32
2023-03-04T16:19:43.004Z,7.65
2023-03-04T16:22:17.675Z,8.57
2023-03-04T16:24:44.299Z,8.30
2023-03-04T16:27:11.916Z,8.15
2023-03-04T16:29:38.402Z,9.73
2023-03-04T16:32:05.067Z,8.75
2023-03-04T16:34:31.960Z,9.57
2023-03-04T16:36:58.701Z,9.55
2023-03-04T16:39:28.141Z,9.80
2023-03-04T16:41:54.918Z,10.05
2023-03-04T16:44:21.302Z,10.25
2023-03-04T16:46:47.905Z,9.85
2023-03-04T16:49:14.500Z,10.95
2023-03-04T16:51:46.840Z,11.40
2023-03-04T16:54:17.739Z,10.93
2023-03-04T16:56:44.155Z,10.57
2023-03-04T16:59:16.091Z,10.45
2023-03-04T17:01:42.983Z,11.63
2023-03-04T17:04:09.633Z,10.88
2023-03-04T17:06:38.248Z,11.00
2023-03-04T17:09:06.055Z,10.93
2023-03-04T17:11:32.440Z,11.05
2023-03-04T17:13:58.866Z,11.80
2023-03-04T17:16:25.270Z,11.30
2023-03-04T17:18:51.908Z,11.15
2023-03-04T17:21:22.332Z,11.40
2023-03-04T17:23:48.868Z,10.57
2023-03-04T17:26:16.606Z,11.25
2023-03-04T17:28:45.584Z,10.85
2023-03-04T17:31:13.729Z,10.15
2023-03-04T17:33:40.178Z,10.82
2023-03-04T17:36:06.908Z,11.13
2023-03-04T17:38:33.554Z,10.05
2023-03-04T17:41:04.832Z,10.10
2023-03-04T17:43:31.226Z,11.15
2023-03-04T17:46:05.746Z,9.85
2023-03-04T17:48:32.420Z,10.25
2023-03-04T17:50:58.815Z,10.00
2023-03-04T17:53:25.163Z,10.43
2023-03-04T17:55:56.279Z,9.80
2023-03-04T17:58:23.631Z,9.90
2023-03-04T18:00:52.083Z,9.95
2023-03-04T18:03:19.633Z,11.15
2023-03-04T18:05:46.038Z,10.73
2023-03-04T18:08:12.406Z,10.00
2023-03-04T18:10:38.784Z,11.10
2023-03-04T18:13:05.163Z,10.38
2023-03-04T18:15:31.631Z,10.88
2023-03-04T18:17:58.130Z,10.57
2023-03-04T18:20:24.455Z,10.75
2023-03-04T18:22:50.837Z,10.98
2023-03-04T18:25:17.297Z,10.40
2023-03-04T18:27:43.824Z,11.23
2023-03-04T18:30:13.415Z,10.25
2023-03-04T18:32:52.011Z,11.57
2023-03-04T18:35:19.588Z,11.90
2023-03-04T18:37:46.097Z,11.25
2023-03-04T18:40:13.061Z,11.95
2023-03-04T18:42:39.412Z,10.52
2023-03-04T18:45:06.402Z,12.25
2023-03-04T18:47:33.625Z,11.20
2023-03-04T18:50:00.008Z,11.25
2023-03-04T18:52:26.449Z,11.45
2023-03-04T18:54:52.809Z,10.52
2023-03-04T18:57:19.232Z,12.45
2023-03-04T18:59:58.639Z,11.63
2023-03-04T19:02:35.527Z,11.38
2023-03-04T19:05:05.309Z,10.82
2023-03-04T19:07:31.661Z,11.65
2023-03-04T19:09:58.385Z,12.20
2023-03-04T19:12:24.819Z,11.45
2023-03-04T19:14:51.214Z,11.23
2023-03-04T19:17:17.632Z,11.90
2023-03-04T19:19:44.543Z,11.52
2023-03-04T19:22:10.891Z,12.13
2023-03-04T19:24:37.333Z,12.27
2023-03-04T19:27:05.253Z,10.98
2023-03-04T19:29:31.769Z,11.38
2023-03-04T19:31:58.153Z,11.20
2023-03-04T19:34:24.579Z,10.27
2023-03-04T19:36:51.178Z,10.45
2023-03-04T19:39:18.450Z,11.45
2023-03-04T19:41:46.367Z,10.02
2023-03-04T19:44:12.773Z,11.32
2023-03-04T19:46:39.136Z,10.70
2023-03-04T19:49:06.395Z,9.95
2023-03-04T19:51:32.760Z,10.80
2023-03-04T19:53:59.840Z,11.45
2023-03-04T19:56:26.231Z,11.45
2023-03-04T19:58:54.031Z,11.07
2023-03-04T20:01:29.706Z,11.80
2023-03-04T20:03:58.226Z,11.80
2023-03-04T20:06:26.787Z,12.52
2023-03-04T20:08:57.989Z,12.45
2023-03-04T20:11:24.447Z,11.80
2023-03-04T20:13:50.769Z,11.35
2023-03-04T20:16:17.561Z,12.85
2023-03-04T20:18:43.981Z,12.38
2023-03-04T20:21:11.375Z,12.25
2023-03-04T20:23:37.922Z,12.35
2023-03-04T20:26:04.898Z,12.23
2023-03-04T20:28:31.906Z,12.30
2023-03-04T20:31:12.055Z,12.30
2023-03-04T20:33:38.451Z,11.88
2023-03-04T20:36:05.117Z,12.73
2023-03-04T20:38:31.435Z,12.15
2023-03-04T20:40:57.914Z,13.45
2023-03-04T20:43:26.671Z,13.40
2023-03-04T20:45:53.055Z,13.52
2023-03-04T20:48:19.489Z,13.52
2023-03-04T20:50:45.875Z,13.25
2023-03-04T20:53:13.435Z,13.82
2023-03-04T20:55:39.834Z,13.05
2023-03-04T20:58:07.555Z,13.70
2023-03-04T21:00:34.278Z,13.63
2023-03-04T21:03:00.734Z,12.63
2023-03-04T21:05:27.072Z,14.05
2023-03-04T21:07:55.171Z,12.68
2023-03-04T21:10:23.022Z,13.07
2023-03-04T21:12:50.504Z,13.27
2023-03-04T21:15:16.937Z,14.10
2023-03-04T21:17:43.277Z,13.27
2023-03-04T21:20:11.114Z,13.50
2023-03-04T21:22:37.511Z,12.15
2023-03-04T21:25:04.125Z,13.57
2023-03-04T21:27:30.681Z,11.57
2023-03-04T21:29:57.033Z,12.10
2023-03-04T21:32:25.638Z,12.73
2023-03-04T21:34:53.397Z,12.75
2023-03-04T21:37:23.871Z,13.60
2023-03-04T21:39:50.296Z,12.75
2023-03-04T21:42:16.738Z,12.13
2023-03-04T21:44:51.613Z,12.57
2023-03-04T21:47:19.835Z,12.70
2023-03-04T21:49:46.197Z,12.35
2023-03-04T21:52:13.047Z,12.98
2023-03-04T21:54:39.505Z,11.45
2023-03-04T21:57:05.901Z,11.90
2023-03-04T21:59:32.294Z,12.18
2023-03-04T22:01:58.762Z,11.70
2023-03-04T22:04:25.204Z,11.60
2023-03-04T22:06:51.549Z,11.77
2023-03-04T22:09:17.933Z,12.10
2023-03-04T22:11:44.341Z,12.73
2023-03-04T22:14:14.562Z,11.20
2023-03-04T22:16:54.066Z,11.98
2023-03-04T22:19:21.874Z,12.48
2023-03-04T22:21:48.268Z,12.35
2023-03-04T22:24:14.740Z,12.30
2023-03-04T22:26:41.125Z,11.57
2023-03-04T22:29:07.465Z,12.48
2023-03-04T22:31:35.848Z,12.73
2023-03-04T22:34:03.331Z,14.10
2023-03-04T22:36:30.546Z,13.70
2023-03-04T22:38:57.007Z,12.98
2023-03-04T22:41:23.442Z,12.48
2023-03-04T22:43:50.260Z,12.93
2023-03-04T22:46:23.249Z,13.10
2023-03-04T22:48:51.240Z,13.05
2023-03-04T22:51:18.642Z,13.02
2023-03-04T22:53:45.181Z,11.95
2023-03-04T22:56:12.968Z,12.65
2023-03-04T22:58:40.010Z,12.57
2023-03-04T23:01:07.186Z,13.18
2023-03-04T23:03:33.743Z,12.95
2023-03-04T23:06:06.907Z,14.20
2023-03-04T23:08:35.098Z,13.20
2023-03-04T23:11:01.753Z,12.85
2023-03-04T23:13:29.168Z,12.63
2023-03-04T23:15:55.525Z,13.05
2023-03-04T23:18:22.033Z,12.55
2023-03-04T23:20:48.366Z,13.35
2023-03-04T23:23:14.790Z,12.25
2023-03-04T23:25:41.161Z,13.02
2023-03-04T23:28:07.554Z,12.60
2023-03-04T23:30:35.250Z,11.95
2023-03-04T23:33:01.686Z,13.45
2023-03-04T23:35:28.113Z,12.05
2023-03-04T23:37:54.504Z,11.88
2023-03-04T23:40:20.987Z,12.13
2023-03-04T23:42:47.369Z,13.43
2023-03-04T23:45:15.464Z,13.15
2023-03-04T23:47:41.789Z,13.73
2023-03-04T23:50:08.950Z,12.82
2023-03-04T23:52:35.384Z,11.70
2023-03-04T23:55:01.754Z,13.05
2023-03-04T23:57:28.101Z,12.60
2023-03-04T23:59:54.720Z,11.18
